createdAt,value
2022-11-04T00:00:15.096Z,95878.84
2022-11-04T00:02:43.901Z,95874.16
2022-11-04T00:05:12.566Z,95892.78
2022-11-04T00:07:59.607Z,95893.91
2022-11-04T00:10:42.080Z,95888.81
2022-11-04T00:13:10.589Z,95894.97
2022-11-04T00:15:57.090Z,95908.59
2022-11-04T00:18:25.736Z,95900.41
2022-11-04T00:21:11.703Z,95909.81
2022-11-04T00:24:04.207Z,95901.09
2022-11-04T00:26:50.380Z,95906.31
2022-11-04T00:29:19.307Z,95901.31
2022-11-04T00:32:05.260Z,95913.91
2022-11-04T00:34:33.873Z,95925.84
2022-11-04T00:37:03.086Z,95925.38
2022-11-04T00:39:32.701Z,95941.41
2022-11-04T00:42:01.015Z,95943.19
2022-11-04T00:44:29.287Z,95941.13
2022-11-04T00:46:57.864Z,95951.13
2022-11-04T00:49:26.459Z,95951.56
2022-11-04T00:51:55.151Z,95962.03
2022-11-04T00:54:23.732Z,95962.59
2022-11-04T00:56:54.132Z,95959.75
2022-11-04T00:59:22.757Z,95973.25
2022-11-04T01:01:51.480Z,95976.75
2022-11-04T01:04:20.266Z,95972.91
2022-11-04T01:06:49.370Z,95967.47
2022-11-04T01:09:18.078Z,95980.75
2022-11-04T01:11:46.972Z,96010.94
2022-11-04T01:14:16.937Z,96021.34
2022-11-04T01:16:45.563Z,96021.00
2022-11-04T01:19:14.255Z,96020.22
2022-11-04T01:21:42.856Z,96013.31
2022-11-04T01:24:11.449Z,96028.06
2022-11-04T01:26:40.087Z,96019.91
2022-11-04T01:29:08.669Z,96019.56
2022-11-04T01:31:38.430Z,96012.19
2022-11-04T01:34:07.064Z,96019.56
2022-11-04T01:36:35.686Z,96021.00
2022-11-04T01:39:04.600Z,96021.00
2022-11-04T01:41:35.269Z,96021.50
2022-11-04T01:44:05.916Z,96005.16
2022-11-04T01:46:44.380Z,96010.72
2022-11-04T01:49:27.855Z,96028.78
2022-11-04T01:52:02.125Z,96021.41
2022-11-04T01:54:32.148Z,96029.91
2022-11-04T01:57:04.264Z,96031.84
2022-11-04T01:59:38.069Z,96027.97
2022-11-04T02:02:09.357Z,96016.28
2022-11-04T02:04:40.271Z,96013.81
2022-11-04T02:07:11.145Z,96015.88
2022-11-04T02:09:42.227Z,96016.19
2022-11-04T02:12:28.184Z,96015.41
2022-11-04T02:14:58.963Z,96014.75
2022-11-04T02:17:43.188Z,96022.59
2022-11-04T02:20:35.600Z,96020.88
2022-11-04T02:23:57.035Z,96018.13
2022-11-04T02:27:03.515Z,96015.41
2022-11-04T02:29:45.180Z,96013.97
2022-11-04T02:32:24.134Z,96009.28
2022-11-04T02:35:04.844Z,96008.63
2022-11-04T02:37:42.248Z,96012.47
2022-11-04T02:40:21.798Z,95998.41
2022-11-04T02:43:00.228Z,96004.97
2022-11-04T02:45:41.241Z,96003.25
2022-11-04T02:48:13.995Z,96008.84
2022-11-04T02:50:48.535Z,96013.47
2022-11-04T02:53:23.134Z,96014.63
2022-11-04T02:55:55.493Z,96021.31
2022-11-04T02:58:28.355Z,96026.97
2022-11-04T03:01:00.918Z,96024.03
2022-11-04T03:03:35.385Z,96018.72
2022-11-04T03:06:05.952Z,96016.81
2022-11-04T03:08:40.695Z,96015.66
2022-11-04T03:11:16.164Z,96023.50
2022-11-04T03:13:51.535Z,96013.88
2022-11-04T03:16:28.818Z,96008.88
2022-11-04T03:19:08.251Z,96009.31
2022-11-04T03:21:46.966Z,96012.53
2022-11-04T03:24:15.588Z,96018.31
2022-11-04T03:26:53.614Z,96012.53
2022-11-04T03:29:30.291Z,96021.16
2022-11-04T03:32:12.275Z,96012.97
2022-11-04T03:34:40.958Z,96018.75
2022-11-04T03:37:10.498Z,96016.25
2022-11-04T03:39:39.639Z,96017.25
2022-11-04T03:42:21.179Z,96017.13
2022-11-04T03:44:52.767Z,96020.66
2022-11-04T03:47:26.518Z,96017.13
2022-11-04T03:50:14.826Z,96020.66
2022-11-04T03:52:43.159Z,96017.72
2022-11-04T03:55:14.138Z,96010.69
2022-11-04T03:57:53.136Z,96020.44
2022-11-04T04:00:23.601Z,96021.25
2022-11-04T04:03:10.183Z,96016.59
2022-11-04T04:05:47.278Z,96020.44
2022-11-04T04:08:23.867Z,96027.69
2022-11-04T04:11:04.134Z,96030.75
2022-11-04T04:13:41.867Z,96016.34
2022-11-04T04:16:22.114Z,96014.88
2022-11-04T04:18:59.110Z,96021.09
2022-11-04T04:21:35.786Z,96016.81
2022-11-04T04:24:27.733Z,96030.44
2022-11-04T04:27:16.042Z,96025.75
2022-11-04T04:29:46.371Z,96013.25
2022-11-04T04:32:17.468Z,96017.13
2022-11-04T04:34:47.468Z,96002.72
2022-11-04T04:37:22.886Z,95988.72
2022-11-04T04:40:14.757Z,95990.66
2022-11-04T04:43:01.033Z,95984.44
2022-11-04T04:45:33.557Z,95976.59
2022-11-04T04:48:02.317Z,95978.97
2022-11-04T04:50:38.327Z,95991.00
2022-11-04T04:53:07.051Z,95994.06
2022-11-04T04:55:40.633Z,95992.84
2022-11-04T04:58:10.699Z,95992.84
2022-11-04T05:00:39.088Z,95986.22
2022-11-04T05:03:08.131Z,95979.31
2022-11-04T05:05:38.416Z,95969.53
2022-11-04T05:08:08.411Z,95977.50
2022-11-04T05:10:37.407Z,95981.94
2022-11-04T05:13:23.613Z,95980.03
2022-11-04T05:15:52.326Z,95983.88
2022-11-04T05:18:21.339Z,95984.34
2022-11-04T05:20:51.160Z,95976.16
2022-11-04T05:23:19.868Z,95984.56
2022-11-04T05:25:48.472Z,95985.34
2022-11-04T05:28:17.143Z,95983.22
2022-11-04T05:30:45.751Z,95983.88
2022-11-04T05:33:14.145Z,95997.28
2022-11-04T05:35:42.771Z,96006.56
2022-11-04T05:38:12.765Z,96012.47
2022-11-04T05:40:41.514Z,96017.91
2022-11-04T05:43:10.486Z,96025.44
2022-11-04T05:45:39.579Z,96046.56
2022-11-04T05:48:08.258Z,96052.69
2022-11-04T05:50:36.960Z,96054.63
2022-11-04T05:53:05.729Z,96051.91
2022-11-04T05:55:35.564Z,96060.06
2022-11-04T05:58:04.194Z,96058.00
2022-11-04T06:00:32.827Z,96043.72
2022-11-04T06:03:01.171Z,96041.13
2022-11-04T06:05:30.449Z,96053.75
2022-11-04T06:07:58.711Z,96070.50
2022-11-04T06:10:27.348Z,96071.84
2022-11-04T06:12:57.040Z,96059.75
2022-11-04T06:15:25.664Z,96063.38
2022-11-04T06:17:54.324Z,96061.81
2022-11-04T06:20:22.944Z,96049.63
2022-11-04T06:22:51.562Z,96042.91
2022-11-04T06:25:20.207Z,96043.25
2022-11-04T06:27:48.759Z,96068.47
2022-11-04T06:30:18.615Z,96068.63
2022-11-04T06:32:47.579Z,96054.09
2022-11-04T06:35:16.231Z,96037.44
2022-11-04T06:37:44.872Z,96028.66
2022-11-04T06:40:13.898Z,96049.88
2022-11-04T06:42:43.011Z,96071.19
2022-11-04T06:45:12.942Z,96067.53
2022-11-04T06:47:42.738Z,96057.78
2022-11-04T06:50:13.557Z,96053.00
2022-11-04T06:52:42.797Z,96046.88
2022-11-04T06:55:12.206Z,96043.34
2022-11-04T06:57:40.849Z,96043.00
2022-11-04T07:00:11.254Z,96048.34
2022-11-04T07:02:40.055Z,96045.28
2022-11-04T07:05:10.729Z,96035.63
2022-11-04T07:07:39.469Z,96030.34
2022-11-04T07:10:08.827Z,96028.84
2022-11-04T07:12:37.540Z,96032.03
2022-11-04T07:15:07.094Z,96037.34
2022-11-04T07:17:35.922Z,96043.69
2022-11-04T07:20:05.574Z,96039.38
2022-11-04T07:22:35.565Z,96039.06
2022-11-04T07:25:04.029Z,96038.91
2022-11-04T07:27:33.581Z,96031.66
2022-11-04T07:30:01.893Z,96027.13
2022-11-04T07:32:30.770Z,96020.44
2022-11-04T07:34:59.375Z,96018.72
2022-11-04T07:37:28.098Z,96019.50
2022-11-04T07:39:57.710Z,96035.06
2022-11-04T07:42:26.056Z,96048.22
2022-11-04T07:44:57.624Z,96059.31
2022-11-04T07:47:27.493Z,96067.81
2022-11-04T07:49:56.133Z,96080.28
2022-11-04T07:52:25.020Z,96071.00
2022-11-04T07:54:53.747Z,96080.56
2022-11-04T07:57:23.932Z,96090.94
2022-11-04T07:59:52.481Z,96098.16
2022-11-04T08:02:26.541Z,96109.53
2022-11-04T08:04:57.400Z,96112.72
2022-11-04T08:07:26.088Z,96114.31
2022-11-04T08:09:54.788Z,96131.34
2022-11-04T08:12:24.974Z,96139.97
2022-11-04T08:14:53.556Z,96136.91
2022-11-04T08:17:22.232Z,96126.94
2022-11-04T08:19:51.110Z,96123.09
2022-11-04T08:22:20.043Z,96131.72
2022-11-04T08:24:48.623Z,96125.72
2022-11-04T08:27:17.268Z,96121.88
2022-11-04T08:29:46.943Z,96127.59
2022-11-04T08:32:15.570Z,96143.03
2022-11-04T08:34:44.199Z,96149.72
2022-11-04T08:37:15.969Z,96151.66
2022-11-04T08:39:44.806Z,96144.59
2022-11-04T08:42:13.499Z,96146.75
2022-11-04T08:44:42.873Z,96133.53
2022-11-04T08:47:12.632Z,96121.81
2022-11-04T08:49:42.030Z,96123.41
2022-11-04T08:52:10.673Z,96114.25
2022-11-04T08:54:39.436Z,96111.41
2022-11-04T08:57:08.103Z,96111.53
2022-11-04T08:59:37.200Z,96101.53
2022-11-04T09:02:06.082Z,96091.38
2022-11-04T09:04:36.455Z,96085.94
2022-11-04T09:07:08.216Z,96080.53
2022-11-04T09:09:39.419Z,96078.41
2022-11-04T09:12:11.367Z,96077.59
2022-11-04T09:14:39.957Z,96072.28
2022-11-04T09:17:08.603Z,96074.38
2022-11-04T09:19:38.285Z,96079.69
2022-11-04T09:22:06.608Z,96066.59
2022-11-04T09:24:35.225Z,96075.56
2022-11-04T09:27:03.554Z,96071.75
2022-11-04T09:29:33.810Z,96067.59
2022-11-04T09:32:02.728Z,96061.03
2022-11-04T09:34:31.434Z,96075.44
2022-11-04T09:37:01.115Z,96068.53
2022-11-04T09:39:29.418Z,96072.72
2022-11-04T09:42:32.307Z,96073.47
2022-11-04T09:45:22.816Z,96074.63
2022-11-04T09:47:54.414Z,96072.94
2022-11-04T09:50:26.834Z,96069.00
2022-11-04T09:53:03.566Z,96060.16
2022-11-04T09:55:39.310Z,96054.13
2022-11-04T09:58:14.500Z,96056.69
2022-11-04T10:00:49.525Z,96059.63
2022-11-04T10:03:30.773Z,96059.03
2022-11-04T10:06:20.912Z,96064.38
2022-11-04T10:09:05.658Z,96070.50
2022-11-04T10:11:50.544Z,96069.22
2022-11-04T10:14:51.910Z,96070.13
2022-11-04T10:17:47.060Z,96071.63
2022-11-04T10:20:28.616Z,96073.38
2022-11-04T10:23:00.498Z,96076.13
2022-11-04T10:25:37.768Z,96082.38
2022-11-04T10:28:12.179Z,96081.78
2022-11-04T10:30:45.875Z,96083.69
2022-11-04T10:33:27.868Z,96083.00
2022-11-04T10:36:02.045Z,96069.38
2022-11-04T10:38:39.719Z,96073.22
2022-11-04T10:41:26.432Z,96054.19
2022-11-04T10:44:00.821Z,96046.56
2022-11-04T10:46:44.379Z,96047.63
2022-11-04T10:49:39.653Z,96047.03
2022-11-04T10:52:10.311Z,96047.94
2022-11-04T10:54:43.381Z,96042.66
2022-11-04T10:57:20.114Z,96043.09
2022-11-04T10:59:54.132Z,96041.41
2022-11-04T11:02:48.263Z,96041.19
2022-11-04T11:05:25.740Z,96034.91
2022-11-04T11:07:57.551Z,96030.72
2022-11-04T11:10:28.900Z,96033.56
2022-11-04T11:13:02.221Z,96026.84
2022-11-04T11:15:35.655Z,96020.59
2022-11-04T11:18:18.405Z,96020.13
2022-11-04T11:20:52.243Z,96029.25
2022-11-04T11:23:40.434Z,96013.63
2022-11-04T11:26:13.760Z,96008.75
2022-11-04T11:28:51.255Z,95996.22
2022-11-04T11:31:26.437Z,95997.97
2022-11-04T11:33:58.992Z,95995.03
2022-11-04T11:36:31.236Z,96002.53
2022-11-04T11:39:05.997Z,96003.75
2022-11-04T11:41:53.168Z,95996.75
2022-11-04T11:44:32.905Z,95996.81
2022-11-04T11:47:03.934Z,96004.72
2022-11-04T11:49:35.843Z,96017.50
2022-11-04T11:52:33.721Z,96021.13
2022-11-04T11:55:13.173Z,96025.47
2022-11-04T12:00:52.048Z,96032.09
2022-11-04T12:09:41.950Z,96036.00
2022-11-04T12:12:36.747Z,96048.41
2022-11-04T12:15:24.998Z,96046.06
2022-11-04T12:18:12.607Z,96052.31
2022-11-04T12:20:57.080Z,96054.78
2022-11-04T12:23:32.129Z,96060.63
2022-11-04T12:26:17.941Z,96060.19
2022-11-04T12:29:04.605Z,96059.22
2022-11-04T12:31:47.786Z,96058.31
2022-11-04T12:34:30.828Z,96053.53
2022-11-04T12:37:21.644Z,96052.41
2022-11-04T12:40:12.049Z,96047.28
2022-11-04T12:42:59.420Z,96038.94
2022-11-04T12:45:40.153Z,96038.16
2022-11-04T12:48:13.684Z,96038.25
2022-11-04T12:51:01.284Z,96041.34
2022-11-04T12:53:59.510Z,96045.34
2022-11-04T12:56:38.333Z,96039.53
2022-11-04T12:59:40.065Z,96042.50
2022-11-04T13:02:21.933Z,96044.34
2022-11-04T13:05:00.268Z,96047.19
2022-11-04T13:07:36.987Z,96047.19
2022-11-04T13:10:12.447Z,96044.00
2022-11-04T13:12:45.457Z,96039.69
2022-11-04T13:15:20.764Z,96037.84
2022-11-04T13:17:56.838Z,96041.81
2022-11-04T13:20:35.955Z,96044.56
2022-11-04T13:23:10.005Z,96043.09
2022-11-04T13:25:44.681Z,96042.34
2022-11-04T13:28:15.515Z,96043.03
2022-11-04T13:30:51.500Z,96055.72
2022-11-04T13:33:34.751Z,96059.81
2022-11-04T13:36:13.682Z,96065.84
2022-11-04T13:38:51.450Z,96073.03
2022-11-04T13:41:53.428Z,96083.16
2022-11-04T13:44:26.962Z,96088.03
2022-11-04T13:47:01.478Z,96094.16
2022-11-04T13:49:33.896Z,96084.63
2022-11-04T13:52:08.147Z,96090.28
2022-11-04T13:54:42.837Z,96086.53
2022-11-04T13:57:16.394Z,96083.59
2022-11-04T14:00:19.971Z,96077.69
2022-11-04T14:02:49.786Z,96081.34
2022-11-04T14:05:48.324Z,96084.41
2022-11-04T14:08:18.183Z,96084.75
2022-11-04T14:11:06.034Z,96083.94
2022-11-04T14:14:12.075Z,96087.13
2022-11-04T14:16:46.643Z,96080.66
2022-11-04T14:19:57.833Z,96083.38
2022-11-04T14:22:48.341Z,96081.19
2022-11-04T14:25:24.781Z,96084.59
2022-11-04T14:27:56.129Z,96092.00
2022-11-04T14:30:44.187Z,96094.75
2022-11-04T14:33:40.580Z,96095.41
2022-11-04T14:36:36.744Z,96099.88
2022-11-04T14:39:24.107Z,96104.97
2022-11-04T14:42:00.307Z,96096.56
2022-11-04T14:44:35.516Z,96108.16
2022-11-04T14:47:16.445Z,96105.41
2022-11-04T14:49:51.013Z,96104.63
2022-11-04T14:52:28.516Z,96106.75
2022-11-04T14:55:05.552Z,96105.88
2022-11-04T14:57:40.225Z,96102.34
2022-11-04T15:00:41.030Z,96105.88
2022-11-04T15:04:08.743Z,96107.44
2022-11-04T15:06:12.002Z,96115.50
2022-11-04T15:08:46.571Z,96115.06
2022-11-04T15:11:38.882Z,96117.00
2022-11-04T15:14:17.096Z,96118.56
2022-11-04T15:16:49.724Z,96121.50
2022-11-04T15:19:28.841Z,96117.53
2022-11-04T15:22:00.591Z,96119.78
2022-11-04T15:24:29.832Z,96124.09
2022-11-04T15:27:04.796Z,96118.06
2022-11-04T15:29:33.631Z,96125.00
2022-11-04T15:32:05.137Z,96125.78
2022-11-04T15:34:36.703Z,96128.50
2022-11-04T15:37:08.980Z,96136.25
2022-11-04T15:39:43.542Z,96137.38
2022-11-04T15:42:40.338Z,96137.69
2022-11-04T15:45:28.697Z,96142.56
2022-11-04T15:48:27.061Z,96142.19
2022-11-04T15:51:17.166Z,96143.16
2022-11-04T15:53:52.585Z,96141.50
2022-11-04T15:56:24.271Z,96144.59
2022-11-04T15:58:54.330Z,96142.63
2022-11-04T16:01:23.767Z,96144.25
2022-11-04T16:03:56.781Z,96145.13
2022-11-04T16:06:37.498Z,96146.16
2022-11-04T16:09:21.578Z,96156.13
2022-11-04T16:12:12.497Z,96144.28
2022-11-04T16:14:47.664Z,96142.84
2022-11-04T16:17:16.503Z,96146.56
2022-11-04T16:19:50.360Z,96142.22
2022-11-04T16:22:27.726Z,96145.59
2022-11-04T16:25:00.020Z,96151.69
2022-11-04T16:27:31.508Z,96145.16
2022-11-04T16:30:10.552Z,96147.06
2022-11-04T16:32:44.041Z,96149.31
2022-11-04T16:35:21.829Z,96153.50
2022-11-04T16:37:50.822Z,96152.88
2022-11-04T16:40:22.681Z,96156.09
2022-11-04T16:42:52.155Z,96158.16
2022-11-04T16:45:26.404Z,96165.03
2022-11-04T16:47:55.760Z,96170.03
2022-11-04T16:50:24.867Z,96168.59
2022-11-04T16:52:54.387Z,96172.63
2022-11-04T16:55:26.285Z,96183.84
2022-11-04T16:58:01.153Z,96176.03
2022-11-04T17:00:33.119Z,96182.78
2022-11-04T17:03:02.475Z,96180.88
2022-11-04T17:05:31.492Z,96182.66
2022-11-04T17:08:04.696Z,96185.72
2022-11-04T17:10:36.897Z,96191.28
2022-11-04T17:13:05.490Z,96191.47
2022-11-04T17:15:34.521Z,96193.41
2022-11-04T17:18:03.184Z,96198.38
2022-11-04T17:20:32.088Z,96199.63
2022-11-04T17:23:01.106Z,96194.84
2022-11-04T17:25:31.466Z,96188.59
2022-11-04T17:28:01.084Z,96200.94
2022-11-04T17:30:29.698Z,96196.94
2022-11-04T17:32:58.337Z,96197.44
2022-11-04T17:35:27.640Z,96200.66
2022-11-04T17:37:56.543Z,96200.50
2022-11-04T17:40:25.520Z,96211.19
2022-11-04T17:43:12.623Z,96216.16
2022-11-04T17:45:43.747Z,96216.16
2022-11-04T17:48:14.228Z,96222.25
2022-11-04T17:50:43.013Z,96220.31
2022-11-04T17:53:12.089Z,96227.19
2022-11-04T17:55:41.584Z,96237.56
2022-11-04T17:58:10.074Z,96241.28
2022-11-04T18:00:38.780Z,96239.03
2022-11-04T18:03:08.980Z,96244.94
2022-11-04T18:05:37.868Z,96238.38
2022-11-04T18:08:06.760Z,96247.00
2022-11-04T18:10:35.606Z,96240.94
2022-11-04T18:13:04.226Z,96249.88
2022-11-04T18:15:32.936Z,96241.25
2022-11-04T18:18:01.219Z,96243.66
2022-11-04T18:20:31.257Z,96248.94
2022-11-04T18:23:00.245Z,96254.84
2022-11-04T18:25:28.897Z,96261.06
2022-11-04T18:27:57.162Z,96263.47
2022-11-04T18:30:25.837Z,96261.53
2022-11-04T18:32:54.549Z,96251.13
2022-11-04T18:35:23.167Z,96261.22
2022-11-04T18:37:53.156Z,96265.09
2022-11-04T18:40:21.989Z,96268.75
2022-11-04T18:42:50.566Z,96268.13
2022-11-04T18:45:19.948Z,96274.66
2022-11-04T18:47:49.074Z,96273.06
2022-11-04T18:50:17.871Z,96281.22
2022-11-04T18:52:46.496Z,96280.91
2022-11-04T18:55:16.243Z,96290.03
2022-11-04T18:57:45.464Z,96290.97
2022-11-04T19:00:17.303Z,96299.63
2022-11-04T19:02:46.262Z,96304.09
2022-11-04T19:05:14.725Z,96306.66
2022-11-04T19:07:44.038Z,96305.38
2022-11-04T19:10:14.079Z,96316.25
2022-11-04T19:13:01.195Z,96315.47
2022-11-04T19:15:30.260Z,96315.28
2022-11-04T19:17:58.833Z,96318.84
2022-11-04T19:20:28.134Z,96329.69
2022-11-04T19:22:56.357Z,96330.84
2022-11-04T19:25:25.194Z,96327.28
2022-11-04T19:28:18.645Z,96331.63
2022-11-04T19:30:43.189Z,96332.56
2022-11-04T19:33:11.774Z,96341.69
2022-11-04T19:35:41.488Z,96350.81
2022-11-04T19:38:10.238Z,96355.28
2022-11-04T19:40:39.053Z,96350.81
2022-11-04T19:43:11.908Z,96347.78
2022-11-04T19:45:42.841Z,96354.31
2022-11-04T19:48:12.633Z,96359.78
2022-11-04T19:50:43.408Z,96364.91
2022-11-04T19:53:12.756Z,96373.38
2022-11-04T19:55:41.466Z,96375.00
2022-11-04T19:58:12.354Z,96374.50
2022-11-04T20:00:41.624Z,96381.53
2022-11-04T20:03:10.211Z,96385.69
2022-11-04T20:05:39.545Z,96385.06
2022-11-04T20:08:08.989Z,96387.47
2022-11-04T20:10:39.582Z,96392.75
2022-11-04T20:13:31.856Z,96399.00
2022-11-04T20:16:00.269Z,96398.50
2022-11-04T20:18:28.866Z,96398.97
2022-11-04T20:20:57.581Z,96398.50
2022-11-04T20:23:26.176Z,96400.13
2022-11-04T20:25:54.440Z,96402.84
2022-11-04T20:28:24.067Z,96409.88
2022-11-04T20:30:52.690Z,96421.59
2022-11-04T20:33:21.227Z,96414.53
2022-11-04T20:35:49.875Z,96411.00
2022-11-04T20:38:18.424Z,96421.09
2022-11-04T20:40:48.370Z,96415.66
2022-11-04T20:43:17.336Z,96418.06
2022-11-04T20:45:52.192Z,96429.56
2022-11-04T20:48:21.163Z,96436.31
2022-11-04T20:50:49.841Z,96435.00
2022-11-04T20:53:18.151Z,96435.50
2022-11-04T20:55:46.823Z,96447.50
2022-11-04T20:58:15.493Z,96440.31
2022-11-04T21:00:43.791Z,96440.94
2022-11-04T21:03:13.509Z,96454.41
2022-11-04T21:05:42.790Z,96453.91
2022-11-04T21:08:11.353Z,96464.97
2022-11-04T21:10:40.212Z,96467.69
2022-11-04T21:13:08.614Z,96473.78
2022-11-04T21:15:42.551Z,96474.41
2022-11-04T21:18:13.786Z,96484.34
2022-11-04T21:20:43.625Z,96483.53
2022-11-04T21:23:13.378Z,96485.28
2022-11-04T21:25:43.317Z,96480.66
2022-11-04T21:28:12.852Z,96489.31
2022-11-04T21:30:45.074Z,96485.94
2022-11-04T21:33:15.537Z,96485.44
2022-11-04T21:35:44.779Z,96485.44
2022-11-04T21:38:16.055Z,96484.50
2022-11-04T21:40:46.042Z,96492.19
2022-11-04T21:43:15.276Z,96492.81
2022-11-04T21:45:43.876Z,96485.59
2022-11-04T21:48:14.047Z,96496.81
2022-11-04T21:50:42.909Z,96503.19
2022-11-04T21:53:11.200Z,96495.97
2022-11-04T21:55:39.586Z,96500.47
2022-11-04T21:58:08.459Z,96502.88
2022-11-04T22:00:37.299Z,96501.72
2022-11-04T22:03:05.976Z,96498.53
2022-11-04T22:05:35.598Z,96499.19
2022-11-04T22:08:23.858Z,96502.69
2022-11-04T22:10:52.499Z,96496.75
2022-11-04T22:13:22.000Z,96496.91
2022-11-04T22:16:00.712Z,96497.22
2022-11-04T22:18:31.167Z,96505.69
2022-11-04T22:21:05.657Z,96507.13
2022-11-04T22:23:36.227Z,96496.25
2022-11-04T22:26:07.682Z,96493.03
2022-11-04T22:28:36.546Z,96499.28
2022-11-04T22:31:09.944Z,96503.75
2022-11-04T22:33:38.877Z,96503.56
2022-11-04T22:36:09.722Z,96499.91
2022-11-04T22:38:41.656Z,96515.91
2022-11-04T22:41:13.674Z,96502.94
2022-11-04T22:43:42.709Z,96500.34
2022-11-04T22:46:15.498Z,96501.59
2022-11-04T22:48:44.414Z,96500.66
2022-11-04T22:51:15.024Z,96500.97
2022-11-04T22:53:44.483Z,96503.50
2022-11-04T22:56:15.403Z,96507.19
2022-11-04T22:58:43.957Z,96504.47
2022-11-04T23:01:16.350Z,96504.13
2022-11-04T23:03:45.378Z,96493.22
2022-11-04T23:06:15.684Z,96505.47
2022-11-04T23:08:45.075Z,96497.09
2022-11-04T23:11:38.231Z,96495.34
2022-11-04T23:14:24.710Z,96499.34
2022-11-04T23:17:11.292Z,96500.66
2022-11-04T23:19:40.581Z,96500.81
2022-11-04T23:22:28.047Z,96498.78
2022-11-04T23:25:06.668Z,96512.88
2022-11-04T23:27:53.459Z,96510.16
2022-11-04T23:30:22.788Z,96505.63
2022-11-04T23:32:52.944Z,96503.22
2022-11-04T23:35:41.811Z,96503.66
2022-11-04T23:38:11.886Z,96509.72
2022-11-04T23:40:40.805Z,96515.47
2022-11-04T23:43:08.732Z,96519.81
2022-11-04T23:45:55.306Z,96515.78
2022-11-04T23:48:41.404Z,96526.16
2022-11-04T23:51:29.952Z,96526.16
2022-11-04T23:54:17.191Z,96527.88
2022-11-04T23:57:03.070Z,96534.75
2022-11-04T23:59:51.354Z,96536.28
